Time;durP1;ratioP1;P1;durP2;ratioP2;P2;SDS_P1;SDS_P2;PMS_P1;PMS_P2;Temp;Humidity;BMP_temperature;BMP_pressure;BME280_temperature;BME280_humidity;BME280_pressure;Samples;Min_cycle;Max_cycle;Signal;HPM_P1;HPM_P2
2023/05/05 00:03:23;;;;;;;9.77;5.60;;;6.20;99.90;;;;;;10240002;23;20178;-66
2023/05/05 00:07:31;;;;;;;8.40;6.17;;;6.20;99.90;;;;;;10211250;23;20257;-69
2023/05/05 00:12:02;;;;;;;10.60;6.50;;;6.20;99.90;;;;;;10210837;23;20166;-69
2023/05/05 00:16:08;;;;;;;13.30;7.47;;;6.20;99.90;;;;;;10213028;23;20182;-68
2023/05/05 00:20:27;;;;;;;12.00;8.07;;;6.10;99.90;;;;;;10210409;23;20155;-69
2023/05/05 00:24:55;;;;;;;13.70;7.97;;;5.90;1.00;;;;;;10206407;23;20171;-69
2023/05/05 00:28:59;;;;;;;13.63;7.93;;;5.70;1.00;;;;;;10180069;23;20260;-68
2023/05/05 00:33:12;;;;;;;10.70;6.53;;;5.60;1.00;;;;;;10180827;23;20167;-69
2023/05/05 00:37:38;;;;;;;9.63;6.53;;;5.50;1.00;;;;;;10180605;23;20222;-67
2023/05/05 00:42:01;;;;;;;8.20;5.77;;;5.40;1.00;;;;;;10177101;23;20181;-68
2023/05/05 00:46:34;;;;;;;7.77;5.40;;;5.30;1.00;;;;;;10179798;23;20169;-68
2023/05/05 00:50:51;;;;;;;6.53;5.07;;;5.20;1.00;;;;;;10194450;23;20174;-68
2023/05/05 01:00:01;;;;;;;8.87;6.17;;;5.00;1.00;;;;;;10197457;23;20166;-69
2023/05/05 01:09:11;;;;;;;9.10;6.10;;;4.90;1.00;;;;;;10200059;23;20215;-69
2023/05/05 01:13:46;;;;;;;9.57;6.10;;;4.80;19.20;;;;;;10209166;23;20165;-67
2023/05/05 01:18:32;;;;;;;10.80;6.33;;;4.70;35.50;;;;;;10208394;23;20215;-69
2023/05/05 01:23:03;;;;;;;11.40;7.80;;;4.70;66.50;;;;;;10211778;23;20162;-70
2023/05/05 01:27:38;;;;;;;10.80;6.63;;;4.70;99.90;;;;;;10197586;23;20171;-70
2023/05/05 01:32:14;;;;;;;9.60;6.73;;;4.60;99.90;;;;;;10205677;23;20180;-69
2023/05/05 01:36:51;;;;;;;;;;;;;;;;;;;;;
2023/05/05 01:41:14;;;;;;;7.87;6.13;;;4.40;99.90;;;;;;10213915;23;20155;-73
2023/05/05 01:45:43;;;;;;;9.00;6.70;;;4.40;99.90;;;;;;10211185;23;20143;-68
2023/05/05 01:49:59;;;;;;;9.57;6.63;;;4.30;99.90;;;;;;10220174;23;20175;-69
2023/05/05 01:54:32;;;;;;;9.40;6.90;;;4.20;99.90;;;;;;10206926;23;20167;-68
2023/05/05 01:58:50;;;;;;;9.30;7.13;;;4.10;99.90;;;;;;10105587;23;20164;-70
2023/05/05 02:03:12;;;;;;;11.53;7.47;;;4.10;99.90;;;;;;10205963;23;20248;-69
2023/05/05 02:12:28;;;;;;;9.97;7.20;;;4.00;99.90;;;;;;10208127;23;20178;-68
2023/05/05 02:17:22;;;;;;;12.53;8.47;;;4.00;99.90;;;;;;10208405;23;20178;-69
2023/05/05 02:22:15;;;;;;;;;;;;;;;;;;;;;
2023/05/05 02:26:47;;;;;;;11.20;7.43;;;3.90;99.90;;;;;;10165330;23;20173;-69
2023/05/05 02:31:08;;;;;;;10.40;7.23;;;3.80;99.90;;;;;;10205081;23;20162;-68
2023/05/05 02:35:53;;;;;;;11.67;7.40;;;3.70;1.00;;;;;;10207917;23;20229;-69
2023/05/05 02:40:32;;;;;;;13.57;7.97;;;3.60;1.00;;;;;;10202484;23;20253;-69
2023/05/05 02:45:11;;;;;;;14.13;8.20;;;3.60;1.00;;;;;;10210744;23;20181;-69
2023/05/05 02:49:12;;;;;;;11.97;6.93;;;3.50;1.00;;;;;;10196959;23;20162;-69
2023/05/05 02:53:15;;;;;;;10.53;6.80;;;3.40;1.00;;;;;;10201081;23;20154;-67
2023/05/05 02:57:22;;;;;;;10.73;7.30;;;3.30;1.00;;;;;;10209442;23;20174;-68
2023/05/05 03:01:45;;;;;;;10.03;6.87;;;3.20;16.80;;;;;;10205722;23;20159;-67
2023/05/05 03:06:06;;;;;;;8.83;6.87;;;3.10;99.90;;;;;;10209416;23;20198;-68
2023/05/05 03:10:14;;;;;;;11.77;7.50;;;3.10;99.90;;;;;;10204719;23;20206;-68
2023/05/05 03:14:18;;;;;;;11.70;7.43;;;3.10;99.90;;;;;;10206705;23;20190;-67
2023/05/05 03:18:21;;;;;;;12.47;6.67;;;3.10;99.90;;;;;;10208147;23;20222;-67
2023/05/05 03:22:26;;;;;;;10.20;6.93;;;3.10;99.90;;;;;;10210257;23;20174;-68
2023/05/05 03:26:27;;;;;;;11.10;7.53;;;3.10;99.90;;;;;;10209250;23;20166;-66
2023/05/05 03:30:33;;;;;;;8.97;6.80;;;3.00;99.90;;;;;;10210573;23;20159;-67
2023/05/05 03:34:36;;;;;;;9.33;6.20;;;3.00;99.90;;;;;;10211454;23;20178;-68
2023/05/05 03:38:37;;;;;;;9.10;6.43;;;3.00;1.00;;;;;;10208300;23;20166;-68
2023/05/05 03:42:38;;;;;;;10.33;7.23;;;3.00;1.00;;;;;;10205552;23;20146;-68
2023/05/05 03:46:39;;;;;;;10.27;6.47;;;3.10;1.00;;;;;;10208041;23;20171;-67
2023/05/05 03:50:40;;;;;;;11.10;7.20;;;3.20;16.70;;;;;;10206837;23;20170;-67
2023/05/05 03:54:41;;;;;;;10.77;7.87;;;3.30;1.00;;;;;;10212124;23;20202;-67
2023/05/05 03:58:42;;;;;;;13.33;9.17;;;3.50;1.00;;;;;;10210430;23;20206;-67
2023/05/05 04:02:43;;;;;;;11.07;8.00;;;3.70;1.00;;;;;;10209052;23;20187;-68
2023/05/05 04:06:49;;;;;;;13.63;8.77;;;3.90;99.90;;;;;;10208971;23;20194;-70
2023/05/05 04:10:50;;;;;;;11.40;8.20;;;4.20;99.90;;;;;;10209365;23;20202;-70
2023/05/05 04:14:51;;;;;;;11.10;8.03;;;4.40;99.90;;;;;;10209576;23;20175;-69
2023/05/05 04:18:52;;;;;;;9.63;7.13;;;4.70;27.80;;;;;;10209134;23;20194;-69
2023/05/05 04:22:53;;;;;;;12.27;8.13;;;5.30;1.00;;;;;;10208370;23;20163;-69
2023/05/05 04:26:54;;;;;;;14.10;8.83;;;6.20;99.90;;;;;;10205295;23;20174;-68
2023/05/05 04:30:59;;;;;;;18.80;9.83;;;6.90;1.00;;;;;;10209286;23;20178;-69
2023/05/05 04:35:00;;;;;;;18.73;10.63;;;7.30;99.90;;;;;;10207810;23;20182;-68
2023/05/05 04:39:02;;;;;;;15.50;10.07;;;7.30;99.90;;;;;;10207475;23;20233;-68
2023/05/05 04:43:02;;;;;;;19.17;12.97;;;7.40;99.90;;;;;;10210263;23;20155;-68
2023/05/05 04:47:03;;;;;;;20.90;13.23;;;7.40;99.90;;;;;;10206919;23;20169;-68
2023/05/05 04:51:05;;;;;;;17.07;11.93;;;7.40;99.90;;;;;;10208268;23;20211;-69
2023/05/05 04:55:10;;;;;;;16.33;12.17;;;7.40;99.90;;;;;;10207638;23;20197;-68
2023/05/05 04:59:11;;;;;;;15.07;10.47;;;7.50;99.90;;;;;;10209905;23;20166;-68
2023/05/05 05:03:12;;;;;;;14.30;10.07;;;7.50;99.90;;;;;;10206999;23;20179;-68
2023/05/05 05:07:13;;;;;;;15.23;9.83;;;7.50;99.90;;;;;;10211067;23;20189;-69
2023/05/05 05:11:14;;;;;;;12.43;8.70;;;7.50;99.90;;;;;;10195786;23;20158;-68
2023/05/05 05:15:15;;;;;;;13.93;9.77;;;7.60;99.90;;;;;;10207313;23;20182;-68
2023/05/05 05:19:16;;;;;;;19.70;12.60;;;7.90;99.90;;;;;;10233440;23;20162;-68
2023/05/05 05:23:17;;;;;;;21.50;14.17;;;8.20;99.90;;;;;;10209461;23;20151;-67
2023/05/05 05:27:19;;;;;;;24.30;15.03;;;8.50;99.90;;;;;;10205326;23;20257;-67
2023/05/05 05:31:19;;;;;;;22.83;14.20;;;8.90;99.90;;;;;;10206195;23;20230;-68
2023/05/05 05:35:26;;;;;;;23.27;14.93;;;9.20;99.90;;;;;;10205248;23;20181;-68
2023/05/05 05:39:27;;;;;;;31.23;20.93;;;9.60;99.90;;;;;;10203361;23;20139;-67
2023/05/05 05:43:28;;;;;;;34.47;23.13;;;9.90;99.90;;;;;;10206639;23;20241;-68
2023/05/05 05:47:29;;;;;;;26.97;17.90;;;10.20;99.90;;;;;;10205027;23;20201;-68
2023/05/05 05:51:45;;;;;;;13.60;9.60;;;10.60;99.90;;;;;;10202799;23;20154;-68
2023/05/05 05:55:46;;;;;;;12.93;8.33;;;11.00;6.00;;;;;;10208914;23;20199;-69
2023/05/05 06:00:07;;;;;;;16.47;9.17;;;11.30;1.00;;;;;;10230807;23;20162;-68
2023/05/05 06:04:16;;;;;;;15.90;10.67;;;11.80;1.00;;;;;;10204926;23;20179;-70
2023/05/05 06:08:17;;;;;;;31.80;18.47;;;12.20;1.00;;;;;;10206255;23;20172;-68
2023/05/05 06:12:18;;;;;;;18.50;10.50;;;12.40;1.00;;;;;;10205696;23;20188;-68
2023/05/05 06:16:20;;;;;;;16.00;9.77;;;12.50;1.00;;;;;;10203648;23;20181;-68
2023/05/05 06:20:24;;;;;;;13.33;8.40;;;12.80;1.00;;;;;;10205090;23;20162;-68
2023/05/05 06:24:25;;;;;;;12.83;6.97;;;13.00;1.00;;;;;;10205251;23;20166;-69
2023/05/05 06:28:38;;;;;;;10.50;8.20;;;13.10;1.00;;;;;;10204719;23;20162;-68
2023/05/05 06:32:42;;;;;;;10.70;7.50;;;13.20;1.00;;;;;;10206323;23;20147;-69
2023/05/05 06:36:43;;;;;;;12.07;9.93;;;13.20;1.00;;;;;;10203508;23;20182;-68
2023/05/05 06:40:48;;;;;;;17.67;10.30;;;13.30;1.00;;;;;;10201975;23;20198;-68
2023/05/05 06:44:49;;;;;;;14.27;9.37;;;13.50;1.00;;;;;;10207444;23;20254;-68
2023/05/05 06:48:50;;;;;;;12.60;8.67;;;13.70;1.00;;;;;;10205393;23;20177;-69
2023/05/05 06:52:52;;;;;;;13.80;8.80;;;13.90;1.00;;;;;;10208306;23;20161;-68
2023/05/05 06:56:53;;;;;;;12.43;8.87;;;14.00;1.00;;;;;;10206050;23;20205;-68
2023/05/05 07:00:54;;;;;;;16.27;9.40;;;14.10;1.00;;;;;;10206534;23;20170;-69
2023/05/05 07:04:55;;;;;;;16.77;9.53;;;14.30;1.00;;;;;;10207353;23;20254;-69
2023/05/05 07:08:56;;;;;;;15.77;8.50;;;14.50;1.00;;;;;;10206020;23;20189;-71
2023/05/05 07:13:06;;;;;;;14.13;8.53;;;14.70;1.00;;;;;;10228359;23;20166;-67
2023/05/05 07:17:08;;;;;;;14.90;8.70;;;14.80;1.00;;;;;;10202818;23;20186;-68
2023/05/05 07:21:15;;;;;;;11.13;8.48;;;15.00;1.00;;;;;;10207213;23;20402;-70
2023/05/05 07:25:27;;;;;;;11.87;7.70;;;15.20;1.00;;;;;;10209656;23;20162;-69
2023/05/05 07:29:28;;;;;;;11.83;8.00;;;15.30;1.00;;;;;;10209013;23;20245;-68
2023/05/05 07:33:30;;;;;;;12.40;7.33;;;15.50;1.00;;;;;;10208199;23;20256;-67
2023/05/05 07:37:31;;;;;;;9.43;6.63;;;15.70;1.00;;;;;;10209751;23;20178;-67
2023/05/05 07:41:32;;;;;;;10.80;6.37;;;15.90;1.00;;;;;;10210547;23;20197;-68
2023/05/05 07:45:33;;;;;;;11.80;6.73;;;16.20;1.00;;;;;;10208565;23;20155;-68
2023/05/05 07:49:35;;;;;;;9.43;6.67;;;16.40;1.00;;;;;;10210255;23;20155;-67
2023/05/05 07:53:40;;;;;;;9.17;5.70;;;16.40;1.00;;;;;;10204999;23;20166;-68
2023/05/05 07:57:41;;;;;;;11.03;6.10;;;16.40;1.00;;;;;;10209947;23;20190;-68
2023/05/05 08:01:51;;;;;;;10.53;6.93;;;16.60;1.00;;;;;;10205690;23;20257;-67
2023/05/05 08:05:55;;;;;;;10.27;7.00;;;16.80;1.00;;;;;;10208884;23;20159;-67
2023/05/05 08:09:56;;;;;;;9.33;7.33;;;16.90;1.00;;;;;;10237411;23;20185;-70
2023/05/05 08:13:58;;;;;;;10.80;6.33;;;17.10;1.00;;;;;;10214402;23;20150;-67
2023/05/05 08:17:59;;;;;;;11.60;7.53;;;17.20;1.00;;;;;;10214240;23;20313;-67
2023/05/05 08:22:00;;;;;;;10.40;7.03;;;17.10;1.00;;;;;;10214726;23;20238;-70
2023/05/05 08:26:05;;;;;;;8.63;6.00;;;17.20;1.00;;;;;;10213610;23;20151;-68
2023/05/05 08:30:07;;;;;;;7.90;5.17;;;17.20;1.00;;;;;;10216425;23;20244;-70
2023/05/05 08:34:14;;;;;;;9.10;5.60;;;17.30;1.00;;;;;;10213298;23;20194;-70
2023/05/05 08:38:17;;;;;;;12.37;6.27;;;17.30;1.00;;;;;;10209119;23;20237;-67
2023/05/05 08:42:19;;;;;;;13.67;7.00;;;17.40;1.00;;;;;;10209578;23;20192;-69
2023/05/05 08:46:25;;;;;;;11.03;6.27;;;17.60;1.00;;;;;;10208868;23;20233;-68
2023/05/05 08:50:31;;;;;;;8.93;6.20;;;17.70;1.00;;;;;;10180934;23;20167;-68
2023/05/05 08:54:55;;;;;;;7.43;5.13;;;17.80;1.00;;;;;;10208934;23;20258;-68
2023/05/05 08:58:56;;;;;;;22.83;7.23;;;18.00;1.00;;;;;;10211279;23;20151;-69
2023/05/05 09:03:00;;;;;;;12.03;7.00;;;18.20;1.00;;;;;;10214093;23;20258;-69
2023/05/05 09:07:01;;;;;;;7.03;5.73;;;18.30;1.00;;;;;;10212170;23;20245;-70
2023/05/05 09:11:08;;;;;;;12.83;6.37;;;18.30;1.00;;;;;;10200115;23;20213;-69
2023/05/05 09:15:29;;;;;;;9.03;5.10;;;18.40;1.00;;;;;;10214084;23;20189;-68
2023/05/05 09:19:30;;;;;;;10.53;5.17;;;18.60;1.00;;;;;;10216257;23;20139;-66
2023/05/05 09:23:44;;;;;;;8.30;5.20;;;18.80;1.00;;;;;;10213691;23;20159;-68
2023/05/05 09:27:47;;;;;;;8.40;5.03;;;19.00;1.00;;;;;;10212213;23;20155;-70
2023/05/05 09:32:10;;;;;;;10.30;5.30;;;19.00;1.00;;;;;;10210174;23;20163;-69
2023/05/05 09:36:18;;;;;;;7.83;5.40;;;19.10;1.00;;;;;;10210238;23;20185;-68
2023/05/05 09:40:20;;;;;;;6.93;4.90;;;19.30;1.00;;;;;;10210091;23;20157;-67
2023/05/05 09:44:36;;;;;;;9.27;5.30;;;19.50;1.00;;;;;;10205808;23;20269;-68
2023/05/05 09:48:40;;;;;;;7.20;5.00;;;19.70;1.00;;;;;;10203078;23;20151;-68
2023/05/05 09:52:42;;;;;;;7.17;5.10;;;19.80;1.00;;;;;;10208562;23;20185;-70
2023/05/05 09:56:46;;;;;;;6.33;5.07;;;19.70;1.00;;;;;;10205984;23;20197;-71
2023/05/05 10:00:50;;;;;;;6.60;5.17;;;19.70;1.00;;;;;;10232728;23;20167;-68
2023/05/05 10:05:20;;;;;;;10.30;5.50;;;19.70;1.00;;;;;;10211057;23;20183;-68
2023/05/05 10:09:25;;;;;;;6.40;4.13;;;19.70;1.00;;;;;;10213043;23;20166;-68
2023/05/05 10:13:26;;;;;;;6.40;4.53;;;19.90;1.00;;;;;;10231713;23;20159;-71
2023/05/05 10:17:39;;;;;;;8.23;4.57;;;20.10;1.00;;;;;;10214067;23;20186;-71
2023/05/05 10:21:52;;;;;;;5.13;3.40;;;20.20;1.00;;;;;;10208973;23;20158;-67
2023/05/05 10:25:59;;;;;;;5.37;3.97;;;20.40;1.00;;;;;;10208552;23;20174;-68
2023/05/05 10:30:04;;;;;;;5.63;4.40;;;20.80;1.00;;;;;;10203806;23;20155;-69
2023/05/05 10:34:16;;;;;;;7.13;4.63;;;21.00;1.00;;;;;;10204102;23;20158;-68
2023/05/05 10:38:27;;;;;;;5.23;3.30;;;21.20;1.00;;;;;;10228680;23;20166;-67
2023/05/05 10:42:28;;;;;;;5.07;2.90;;;21.40;1.00;;;;;;10202865;23;20163;-65
2023/05/05 10:46:30;;;;;;;4.00;3.10;;;21.40;1.00;;;;;;10208347;23;20169;-68
2023/05/05 10:50:55;;;;;;;8.17;4.77;;;21.40;1.00;;;;;;10208677;23;20241;-68
2023/05/05 10:55:50;;;;;;;7.83;4.43;;;21.40;1.00;;;;;;10193491;23;20186;-70
2023/05/05 11:00:03;;;;;;;4.87;3.97;;;21.20;1.00;;;;;;10014719;23;20161;-68
2023/05/05 11:04:24;;;;;;;4.30;3.03;;;21.00;1.00;;;;;;10011969;23;20185;-68
2023/05/05 11:08:25;;;;;;;5.93;4.07;;;21.00;1.00;;;;;;10066785;23;20178;-68
2023/05/05 11:12:38;;;;;;;6.57;3.10;;;21.20;1.00;;;;;;10209647;23;20247;-67
2023/05/05 11:16:54;;;;;;;8.07;4.00;;;21.40;1.00;;;;;;10208771;23;20230;-68
2023/05/05 11:21:01;;;;;;;6.00;3.67;;;21.50;1.00;;;;;;10210964;23;20147;-68
2023/05/05 11:25:40;;;;;;;6.37;3.37;;;21.60;1.00;;;;;;10209310;23;20226;-65
2023/05/05 11:30:03;;;;;;;11.37;3.83;;;21.60;1.00;;;;;;10206943;23;20202;-68
2023/05/05 11:34:26;;;;;;;5.20;3.17;;;21.70;1.00;;;;;;10210956;23;20170;-65
2023/05/05 11:38:49;;;;;;;5.37;3.03;;;21.80;1.00;;;;;;10211029;23;20163;-64
2023/05/05 11:43:11;;;;;;;7.60;3.80;;;22.00;1.00;;;;;;10214263;23;20174;-68
2023/05/05 11:47:15;;;;;;;7.27;4.00;;;22.00;1.00;;;;;;10212112;23;20147;-69
2023/05/05 11:51:34;;;;;;;7.00;3.57;;;22.10;1.00;;;;;;10206679;23;20241;-68
2023/05/05 11:55:35;;;;;;;10.50;4.00;;;21.90;1.00;;;;;;10212984;23;20257;-67
2023/05/05 11:59:57;;;;;;;6.90;3.40;;;21.90;1.00;;;;;;10236374;23;20194;-67
2023/05/05 12:03:58;;;;;;;6.30;3.80;;;21.90;1.00;;;;;;10212106;23;20170;-67
2023/05/05 12:08:15;;;;;;;5.67;3.67;;;21.70;1.00;;;;;;10211919;23;20190;-69
2023/05/05 12:12:36;;;;;;;7.27;3.87;;;21.70;1.00;;;;;;10210607;23;20177;-65
2023/05/05 12:16:38;;;;;;;6.60;3.50;;;21.70;1.00;;;;;;10216092;23;20193;-68
2023/05/05 12:20:46;;;;;;;6.27;3.40;;;21.60;1.00;;;;;;10209826;23;20159;-66
2023/05/05 12:25:02;;;;;;;7.43;3.87;;;21.60;1.00;;;;;;10236242;23;20159;-68
2023/05/05 12:29:03;;;;;;;7.70;3.60;;;21.60;1.00;;;;;;10212367;23;20163;-66
2023/05/05 12:33:06;;;;;;;6.87;3.17;;;21.80;1.00;;;;;;10228724;23;20186;-63
2023/05/05 12:37:07;;;;;;;8.33;4.00;;;22.00;1.00;;;;;;10210987;23;20210;-67
2023/05/05 12:41:17;;;;;;;5.97;3.10;;;22.30;1.00;;;;;;10209522;23;20197;-67
2023/05/05 12:45:21;;;;;;;7.57;3.80;;;22.60;1.00;;;;;;10214608;23;20150;-70
2023/05/05 12:49:26;;;;;;;7.23;3.57;;;22.70;1.00;;;;;;10187791;23;20307;-67
2023/05/05 12:53:32;;;;;;;5.57;3.63;;;22.70;1.00;;;;;;10211334;23;20161;-67
2023/05/05 12:57:33;;;;;;;6.80;3.23;;;22.80;1.00;;;;;;10207340;23;20197;-68
2023/05/05 13:05:49;;;;;;;7.60;4.37;;;22.70;1.00;;;;;;10161843;23;20222;-68
2023/05/05 13:10:08;;;;;;;5.63;3.03;;;22.70;1.00;;;;;;10163887;23;20216;-68
2023/05/05 13:14:09;;;;;;;5.63;2.90;;;22.80;1.00;;;;;;10161913;23;20155;-67
2023/05/05 13:18:10;;;;;;;7.23;3.30;;;22.90;1.00;;;;;;10159153;23;20297;-68
2023/05/05 13:22:12;;;;;;;6.27;2.90;;;23.20;1.00;;;;;;10159653;23;20222;-65
2023/05/05 13:26:17;;;;;;;20.40;11.10;;;23.20;1.00;;;;;;10155399;23;20167;-69
2023/05/05 13:30:21;;;;;;;8.98;6.25;;;23.20;1.00;;;;;;10155901;23;20479;-70
2023/05/05 13:34:22;;;;;;;19.90;4.83;;;23.10;1.00;;;;;;10163283;23;20168;-66
2023/05/05 13:38:36;;;;;;;5.43;3.73;;;23.00;1.00;;;;;;10159279;23;20159;-68
2023/05/05 13:42:40;;;;;;;3.57;2.67;;;22.90;1.00;;;;;;10162275;23;20179;-68
2023/05/05 13:46:42;;;;;;;5.20;3.10;;;23.10;1.00;;;;;;10161427;23;20242;-68
2023/05/05 13:50:51;;;;;;;4.03;2.00;;;23.20;1.00;;;;;;10159853;23;20183;-68
2023/05/05 13:54:57;;;;;;;4.13;2.40;;;23.10;1.00;;;;;;10159490;23;20191;-69
2023/05/05 13:59:01;;;;;;;7.43;2.50;;;22.90;1.00;;;;;;10157216;23;20147;-66
2023/05/05 14:03:04;;;;;;;3.60;2.73;;;22.80;1.00;;;;;;10158615;23;20223;-68
2023/05/05 14:07:05;;;;;;;4.70;3.03;;;22.80;1.00;;;;;;10187976;23;20163;-68
2023/05/05 14:11:06;;;;;;;4.60;3.07;;;22.80;1.00;;;;;;10162715;23;20170;-68
2023/05/05 14:15:07;;;;;;;4.87;2.93;;;23.00;1.00;;;;;;10163031;23;20193;-67
2023/05/05 14:19:08;;;;;;;4.90;3.40;;;23.00;1.00;;;;;;10160452;23;20158;-64
2023/05/05 14:23:09;;;;;;;6.87;3.37;;;22.80;1.00;;;;;;10163219;23;20152;-68
2023/05/05 14:27:14;;;;;;;4.33;3.20;;;22.60;1.00;;;;;;10163122;23;20171;-68
2023/05/05 14:31:16;;;;;;;4.00;2.30;;;22.60;1.00;;;;;;10159983;23;20163;-67
2023/05/05 14:35:17;;;;;;;7.07;2.70;;;22.60;1.00;;;;;;10159038;23;20190;-67
2023/05/05 14:39:18;;;;;;;4.07;2.60;;;22.70;1.00;;;;;;10160495;23;20167;-68
2023/05/05 14:43:19;;;;;;;5.00;2.37;;;22.70;1.00;;;;;;10164366;23;20162;-67
2023/05/05 14:47:20;;;;;;;3.83;2.60;;;22.80;1.00;;;;;;10162065;23;20162;-67
2023/05/05 14:51:24;;;;;;;3.23;2.47;;;23.00;1.00;;;;;;10161582;23;20222;-64
2023/05/05 14:55:31;;;;;;;5.43;2.23;;;23.00;1.00;;;;;;10160031;23;20270;-67
2023/05/05 14:59:32;;;;;;;3.60;2.20;;;23.00;1.00;;;;;;10186261;23;20163;-65
2023/05/05 15:03:34;;;;;;;4.03;1.93;;;22.90;1.00;;;;;;10181240;23;20203;-64
2023/05/05 15:07:44;;;;;;;6.23;2.40;;;22.80;1.00;;;;;;10184855;23;20167;-65
2023/05/05 15:11:45;;;;;;;3.53;2.20;;;23.00;1.00;;;;;;10164575;23;20238;-66
2023/05/05 15:15:47;;;;;;;4.53;2.50;;;23.20;1.00;;;;;;10186736;23;20274;-65
2023/05/05 15:19:52;;;;;;;3.37;2.17;;;23.10;1.00;;;;;;10165040;23;20178;-65
2023/05/05 15:23:56;;;;;;;3.20;2.03;;;23.10;1.00;;;;;;10162923;23;20167;-64
2023/05/05 15:27:59;;;;;;;4.60;1.90;;;23.10;1.00;;;;;;10201835;23;20194;-66
2023/05/05 15:32:00;;;;;;;4.53;2.33;;;23.10;1.00;;;;;;10237239;23;20241;-65
2023/05/05 15:36:01;;;;;;;3.40;2.03;;;22.70;1.00;;;;;;10211393;23;20182;-65
2023/05/05 15:40:04;;;;;;;5.93;2.00;;;22.50;1.00;;;;;;10211378;23;20178;-66
2023/05/05 15:44:05;;;;;;;2.53;1.87;;;22.40;1.00;;;;;;10213965;23;20218;-66
2023/05/05 15:48:10;;;;;;;5.53;1.73;;;22.50;1.00;;;;;;10207977;23;20166;-66
2023/05/05 15:52:11;;;;;;;4.30;1.87;;;22.30;1.00;;;;;;10211242;23;20197;-65
2023/05/05 15:56:12;;;;;;;4.13;2.37;;;22.20;1.00;;;;;;10213308;23;20182;-65
2023/05/05 16:00:14;;;;;;;4.33;1.67;;;22.00;1.00;;;;;;10215072;23;20147;-66
2023/05/05 16:04:17;;;;;;;3.60;1.60;;;21.90;1.00;;;;;;10209929;23;20195;-66
2023/05/05 16:08:22;;;;;;;3.47;1.77;;;21.90;1.00;;;;;;10210513;23;20169;-65
2023/05/05 16:12:24;;;;;;;6.23;2.00;;;21.70;1.00;;;;;;10205486;23;20185;-65
2023/05/05 16:16:25;;;;;;;3.53;1.80;;;21.60;1.00;;;;;;10212461;23;20193;-66
2023/05/05 16:20:26;;;;;;;3.17;2.00;;;21.40;1.00;;;;;;10208261;23;20163;-66
2023/05/05 16:24:27;;;;;;;3.83;2.50;;;21.30;1.00;;;;;;10211868;23;20162;-65
2023/05/05 16:28:28;;;;;;;7.37;2.10;;;21.30;1.00;;;;;;10208575;23;20201;-66
2023/05/05 16:32:32;;;;;;;6.70;3.03;;;21.10;1.00;;;;;;10208683;23;20150;-67
2023/05/05 16:36:33;;;;;;;2.97;2.07;;;21.10;1.00;;;;;;10210514;23;20197;-68
2023/05/05 16:40:36;;;;;;;3.03;1.97;;;21.00;1.00;;;;;;10233726;23;20241;-65
2023/05/05 16:44:37;;;;;;;3.63;2.23;;;20.80;1.00;;;;;;10213571;23;20253;-67
2023/05/05 16:48:38;;;;;;;4.23;2.03;;;20.80;1.00;;;;;;10233228;23;20159;-66
2023/05/05 16:52:39;;;;;;;4.43;2.37;;;20.60;1.00;;;;;;10238026;23;20167;-67
2023/05/05 16:56:40;;;;;;;4.00;2.40;;;20.50;1.00;;;;;;10211983;23;20190;-69
2023/05/05 17:00:45;;;;;;;5.97;2.60;;;20.40;1.00;;;;;;10212286;23;20157;-66
2023/05/05 17:04:53;;;;;;;34.60;5.80;;;20.20;1.00;;;;;;10208741;23;20285;-68
2023/05/05 17:08:57;;;;;;;6.23;3.23;;;20.10;1.00;;;;;;10203487;23;20214;-66
2023/05/05 17:12:58;;;;;;;9.90;5.17;;;20.00;1.00;;;;;;10206899;23;20155;-68
2023/05/05 17:17:11;;;;;;;5.53;4.60;;;19.90;1.00;;;;;;10227352;23;20217;-66
2023/05/05 17:21:33;;;;;;;9.70;4.37;;;19.80;1.00;;;;;;10206029;23;20221;-66
2023/05/05 17:25:37;;;;;;;9.53;4.03;;;19.60;1.00;;;;;;10176746;23;20176;-66
2023/05/05 17:29:40;;;;;;;8.37;4.60;;;19.50;1.00;;;;;;10206697;23;20166;-65
2023/05/05 17:33:41;;;;;;;10.80;6.13;;;19.40;1.00;;;;;;10188894;23;20305;-64
2023/05/05 17:37:42;;;;;;;9.43;5.80;;;19.20;1.00;;;;;;10203562;23;20178;-62
2023/05/05 17:41:44;;;;;;;9.53;5.30;;;19.00;1.00;;;;;;10202466;23;20225;-62
2023/05/05 17:45:45;;;;;;;10.67;5.43;;;18.80;1.00;;;;;;10201585;23;20171;-63
2023/05/05 17:49:47;;;;;;;11.43;6.03;;;18.60;1.00;;;;;;10203400;23;20253;-62
2023/05/05 17:53:48;;;;;;;14.23;7.07;;;18.40;1.00;;;;;;10205689;23;20169;-63
2023/05/05 17:57:49;;;;;;;13.03;6.60;;;18.20;1.00;;;;;;10231085;23;20193;-62
2023/05/05 18:02:00;;;;;;;11.90;7.80;;;18.00;1.00;;;;;;10204464;23;20151;-63
2023/05/05 18:06:01;;;;;;;15.03;5.40;;;17.80;1.00;;;;;;10204142;23;20175;-64
2023/05/05 18:10:02;;;;;;;7.70;5.50;;;17.60;1.00;;;;;;10206174;23;20249;-64
2023/05/05 18:14:03;;;;;;;17.87;6.97;;;17.40;1.00;;;;;;10203891;23;20162;-64
2023/05/05 18:18:04;;;;;;;12.97;6.60;;;17.30;1.00;;;;;;10204634;23;20295;-67
2023/05/05 18:22:05;;;;;;;14.77;8.47;;;17.20;1.00;;;;;;10204491;23;20158;-66
2023/05/05 18:26:07;;;;;;;13.23;8.30;;;17.00;1.00;;;;;;10202799;23;20281;-67
2023/05/05 18:30:08;;;;;;;11.93;8.00;;;16.80;1.00;;;;;;10206072;23;20162;-69
2023/05/05 18:34:09;;;;;;;36.50;16.10;;;16.60;1.00;;;;;;10154189;23;20281;-67
2023/05/05 18:38:11;;;;;;;30.97;15.83;;;16.50;1.00;;;;;;10190652;23;20209;-66
2023/05/05 18:42:14;;;;;;;29.00;15.50;;;16.30;1.00;;;;;;10203682;23;20158;-68
2023/05/05 18:46:16;;;;;;;24.33;13.33;;;16.20;1.00;;;;;;10210912;23;20170;-67
2023/05/05 18:50:16;;;;;;;15.03;6.80;;;16.00;1.00;;;;;;10213464;23;20196;-68
2023/05/05 18:54:18;;;;;;;14.53;7.27;;;15.90;1.00;;;;;;10237189;23;20194;-66
2023/05/05 18:58:18;;;;;;;13.67;6.90;;;15.80;1.00;;;;;;10208076;23;20193;-68
2023/05/05 19:02:19;;;;;;;15.60;7.83;;;15.70;1.00;;;;;;10207906;23;20182;-66
2023/05/05 19:06:20;;;;;;;15.33;9.13;;;15.60;1.00;;;;;;10210907;23;20174;-68
2023/05/05 19:10:21;;;;;;;11.43;7.53;;;15.50;1.00;;;;;;10208122;23;20174;-67
2023/05/05 19:14:26;;;;;;;23.40;10.37;;;15.30;1.00;;;;;;10212332;23;20250;-69
2023/05/05 19:18:27;;;;;;;33.63;18.97;;;15.20;1.00;;;;;;10211062;23;20269;-69
2023/05/05 19:22:31;;;;;;;25.90;11.03;;;15.10;1.00;;;;;;10214169;23;20166;-66
2023/05/05 19:26:32;;;;;;;26.03;12.93;;;14.90;1.00;;;;;;10214950;23;20166;-66
2023/05/05 19:30:33;;;;;;;31.23;15.50;;;14.90;1.00;;;;;;10189913;23;20177;-68
2023/05/05 19:34:34;;;;;;;39.73;18.77;;;14.90;1.00;;;;;;10210118;23;20155;-66
2023/05/05 19:38:43;;;;;;;21.43;9.17;;;14.80;1.00;;;;;;10214417;23;20191;-66
2023/05/05 19:42:44;;;;;;;18.20;8.10;;;14.80;1.00;;;;;;10210968;23;20163;-66
2023/05/05 19:46:45;;;;;;;15.87;8.03;;;14.80;1.00;;;;;;10209866;23;20150;-67
2023/05/05 19:50:46;;;;;;;12.47;6.10;;;14.80;1.00;;;;;;10208672;23;20165;-66
2023/05/05 19:54:48;;;;;;;13.30;6.30;;;14.80;1.00;;;;;;10208306;23;20233;-67
2023/05/05 19:58:57;;;;;;;15.03;6.30;;;14.80;1.00;;;;;;10195309;23;20257;-63
2023/05/05 20:02:58;;;;;;;11.00;5.63;;;14.70;1.00;;;;;;10208875;23;20194;-65
2023/05/05 20:06:59;;;;;;;8.20;5.00;;;14.70;1.00;;;;;;10205001;23;20159;-65
2023/05/05 20:11:00;;;;;;;10.73;5.40;;;14.60;1.00;;;;;;10204086;23;20205;-64
2023/05/05 20:15:05;;;;;;;16.37;6.13;;;14.50;1.00;;;;;;10208407;23;20178;-63
2023/05/05 20:19:06;;;;;;;6.87;4.53;;;14.50;1.00;;;;;;10206809;23;20159;-63
2023/05/05 20:23:07;;;;;;;10.53;4.80;;;14.40;1.00;;;;;;10206088;23;20232;-63
2023/05/05 20:27:08;;;;;;;8.67;5.10;;;14.40;1.00;;;;;;10227588;23;20158;-66
2023/05/05 20:31:09;;;;;;;12.73;5.30;;;14.30;1.00;;;;;;10204702;23;20161;-64
2023/05/05 20:35:11;;;;;;;12.77;8.10;;;14.30;1.00;;;;;;10210565;23;20214;-64
2023/05/05 20:39:15;;;;;;;11.87;6.90;;;14.20;1.00;;;;;;10238411;23;20226;-63
2023/05/05 20:43:17;;;;;;;11.97;5.20;;;14.10;1.00;;;;;;10207492;23;20163;-64
2023/05/05 20:47:18;;;;;;;9.17;4.70;;;14.10;1.00;;;;;;10204986;23;20166;-64
2023/05/05 20:51:19;;;;;;;9.50;4.77;;;14.00;1.00;;;;;;10209739;23;20226;-63
2023/05/05 20:55:24;;;;;;;13.17;5.93;;;13.90;1.00;;;;;;10208565;23;20214;-64
2023/05/05 20:59:34;;;;;;;10.47;4.73;;;13.80;1.00;;;;;;10210166;23;20186;-65
2023/05/05 21:03:36;;;;;;;11.93;6.17;;;13.80;1.00;;;;;;10229473;23;20200;-65
2023/05/05 21:07:37;;;;;;;10.40;5.20;;;13.70;1.00;;;;;;10235658;23;20170;-64
2023/05/05 21:11:41;;;;;;;12.90;4.77;;;13.70;1.00;;;;;;10207149;23;20162;-63
2023/05/05 21:15:42;;;;;;;10.80;4.57;;;13.70;1.00;;;;;;10208289;23;20261;-65
2023/05/05 21:19:43;;;;;;;8.17;4.63;;;13.60;1.00;;;;;;10207360;23;20158;-63
2023/05/05 21:23:49;;;;;;;8.00;4.37;;;13.50;1.00;;;;;;10207094;23;20178;-64
2023/05/05 21:27:50;;;;;;;11.83;4.83;;;13.40;1.00;;;;;;10210117;23;20247;-64
2023/05/05 21:31:51;;;;;;;6.27;3.93;;;13.40;1.00;;;;;;10204843;23;20269;-64
2023/05/05 21:35:55;;;;;;;11.13;4.57;;;13.30;1.00;;;;;;10209751;23;20186;-64
2023/05/05 21:40:02;;;;;;;5.57;4.00;;;13.30;1.00;;;;;;10210422;23;20253;-63